sensor_id;sensor_type;location;lat;lon;timestamp;P1;durP1;ratioP1;P2;durP2;ratioP2
65581;SDS011;52231;40.090;18.348;2023-09-08T00:00:05;18.65;;;12.98;;
65581;SDS011;52231;40.090;18.348;2023-09-08T00:02:33;23.88;;;13.77;;
65581;SDS011;52231;40.090;18.348;2023-09-08T00:05:02;24.15;;;13.90;;
65581;SDS011;52231;40.090;18.348;2023-09-08T00:07:30;20.30;;;13.60;;
65581;SDS011;52231;40.090;18.348;2023-09-08T00:09:58;22.80;;;14.05;;
65581;SDS011;52231;40.090;18.348;2023-09-08T00:14:54;20.13;;;11.88;;
65581;SDS011;52231;40.090;18.348;2023-09-08T00:17:22;21.60;;;13.00;;
65581;SDS011;52231;40.090;18.348;2023-09-08T00:19:50;20.48;;;13.65;;
65581;SDS011;52231;40.090;18.348;2023-09-08T00:22:18;23.00;;;12.55;;
65581;SDS011;52231;40.090;18.348;2023-09-08T00:24:46;18.63;;;13.45;;
65581;SDS011;52231;40.090;18.348;2023-09-08T00:27:15;21.05;;;12.10;;
65581;SDS011;52231;40.090;18.348;2023-09-08T00:32:11;22.50;;;12.35;;
65581;SDS011;52231;40.090;18.348;2023-09-08T00:37:08;25.42;;;12.52;;
65581;SDS011;52231;40.090;18.348;2023-09-08T00:39:37;19.80;;;12.43;;
65581;SDS011;52231;40.090;18.348;2023-09-08T00:42:06;19.08;;;12.48;;
65581;SDS011;52231;40.090;18.348;2023-09-08T00:44:34;17.80;;;12.13;;
65581;SDS011;52231;40.090;18.348;2023-09-08T00:47:02;23.40;;;11.63;;
65581;SDS011;52231;40.090;18.348;2023-09-08T00:49:30;16.77;;;11.48;;
65581;SDS011;52231;40.090;18.348;2023-09-08T00:51:59;17.95;;;11.77;;
65581;SDS011;52231;40.090;18.348;2023-09-08T00:54:28;20.52;;;12.45;;
65581;SDS011;52231;40.090;18.348;2023-09-08T00:56:56;19.52;;;12.73;;
65581;SDS011;52231;40.090;18.348;2023-09-08T00:59:25;16.83;;;11.60;;
65581;SDS011;52231;40.090;18.348;2023-09-08T01:04:21;16.35;;;9.98;;
65581;SDS011;52231;40.090;18.348;2023-09-08T01:06:49;18.50;;;10.32;;
65581;SDS011;52231;40.090;18.348;2023-09-08T01:09:19;19.20;;;11.68;;
65581;SDS011;52231;40.090;18.348;2023-09-08T01:11:47;17.63;;;11.05;;
65581;SDS011;52231;40.090;18.348;2023-09-08T01:14:18;18.73;;;11.82;;
65581;SDS011;52231;40.090;18.348;2023-09-08T01:16:49;19.83;;;11.00;;
65581;SDS011;52231;40.090;18.348;2023-09-08T01:27:34;18.30;;;11.18;;
65581;SDS011;52231;40.090;18.348;2023-09-08T01:30:03;22.33;;;11.40;;
65581;SDS011;52231;40.090;18.348;2023-09-08T01:32:33;17.55;;;11.48;;
65581;SDS011;52231;40.090;18.348;2023-09-08T01:35:02;19.45;;;11.13;;
65581;SDS011;52231;40.090;18.348;2023-09-08T01:37:31;18.70;;;10.95;;
65581;SDS011;52231;40.090;18.348;2023-09-08T01:39:59;18.08;;;10.93;;
65581;SDS011;52231;40.090;18.348;2023-09-08T01:42:27;20.65;;;10.88;;
65581;SDS011;52231;40.090;18.348;2023-09-08T01:44:55;17.35;;;10.68;;
65581;SDS011;52231;40.090;18.348;2023-09-08T01:47:24;19.65;;;10.18;;
65581;SDS011;52231;40.090;18.348;2023-09-08T01:49:52;17.92;;;10.60;;
65581;SDS011;52231;40.090;18.348;2023-09-08T01:52:20;18.55;;;10.48;;
65581;SDS011;52231;40.090;18.348;2023-09-08T01:54:48;17.50;;;10.63;;
65581;SDS011;52231;40.090;18.348;2023-09-08T01:57:16;24.02;;;11.32;;
65581;SDS011;52231;40.090;18.348;2023-09-08T01:59:45;18.58;;;11.00;;
65581;SDS011;52231;40.090;18.348;2023-09-08T02:02:13;19.52;;;11.07;;
65581;SDS011;52231;40.090;18.348;2023-09-08T02:04:42;17.48;;;10.27;;
65581;SDS011;52231;40.090;18.348;2023-09-08T02:07:10;17.58;;;10.45;;
65581;SDS011;52231;40.090;18.348;2023-09-08T02:12:06;18.50;;;10.68;;
65581;SDS011;52231;40.090;18.348;2023-09-08T02:14:34;20.40;;;10.68;;
65581;SDS011;52231;40.090;18.348;2023-09-08T02:19:30;15.20;;;9.07;;
65581;SDS011;52231;40.090;18.348;2023-09-08T02:21:58;19.02;;;10.85;;
65581;SDS011;52231;40.090;18.348;2023-09-08T02:26:55;17.17;;;8.85;;
65581;SDS011;52231;40.090;18.348;2023-09-08T02:29:23;18.50;;;9.65;;
65581;SDS011;52231;40.090;18.348;2023-09-08T02:31:52;20.50;;;9.73;;
65581;SDS011;52231;40.090;18.348;2023-09-08T02:34:21;16.65;;;8.60;;
65581;SDS011;52231;40.090;18.348;2023-09-08T02:36:49;18.27;;;9.85;;
65581;SDS011;52231;40.090;18.348;2023-09-08T02:39:22;16.10;;;8.93;;
65581;SDS011;52231;40.090;18.348;2023-09-08T02:41:51;16.42;;;8.02;;
65581;SDS011;52231;40.090;18.348;2023-09-08T02:44:19;16.30;;;8.30;;
65581;SDS011;52231;40.090;18.348;2023-09-08T02:46:49;18.15;;;9.35;;
65581;SDS011;52231;40.090;18.348;2023-09-08T02:51:45;14.00;;;7.60;;
65581;SDS011;52231;40.090;18.348;2023-09-08T02:54:13;16.17;;;8.60;;
65581;SDS011;52231;40.090;18.348;2023-09-08T02:56:41;13.48;;;8.38;;
65581;SDS011;52231;40.090;18.348;2023-09-08T03:01:37;18.08;;;7.82;;
65581;SDS011;52231;40.090;18.348;2023-09-08T03:04:05;16.48;;;8.23;;
65581;SDS011;52231;40.090;18.348;2023-09-08T03:06:34;14.10;;;7.90;;
65581;SDS011;52231;40.090;18.348;2023-09-08T03:09:03;16.77;;;7.35;;
65581;SDS011;52231;40.090;18.348;2023-09-08T03:13:58;14.98;;;7.10;;
65581;SDS011;52231;40.090;18.348;2023-09-08T03:16:27;17.60;;;7.65;;
65581;SDS011;52231;40.090;18.348;2023-09-08T03:18:55;12.40;;;6.22;;
65581;SDS011;52231;40.090;18.348;2023-09-08T03:21:23;19.33;;;7.43;;
65581;SDS011;52231;40.090;18.348;2023-09-08T03:26:19;14.10;;;7.60;;
65581;SDS011;52231;40.090;18.348;2023-09-08T03:28:47;13.65;;;6.60;;
65581;SDS011;52231;40.090;18.348;2023-09-08T03:31:15;14.88;;;7.20;;
65581;SDS011;52231;40.090;18.348;2023-09-08T03:33:44;15.38;;;7.13;;
65581;SDS011;52231;40.090;18.348;2023-09-08T03:38:40;11.35;;;6.40;;
65581;SDS011;52231;40.090;18.348;2023-09-08T03:41:08;14.80;;;7.22;;
65581;SDS011;52231;40.090;18.348;2023-09-08T03:43:36;15.70;;;7.72;;
65581;SDS011;52231;40.090;18.348;2023-09-08T03:46:04;17.65;;;7.72;;
65581;SDS011;52231;40.090;18.348;2023-09-08T03:48:32;14.10;;;7.72;;
65581;SDS011;52231;40.090;18.348;2023-09-08T03:51:01;15.43;;;7.47;;
65581;SDS011;52231;40.090;18.348;2023-09-08T03:53:29;14.82;;;7.93;;
65581;SDS011;52231;40.090;18.348;2023-09-08T03:55:58;18.35;;;8.90;;
65581;SDS011;52231;40.090;18.348;2023-09-08T04:00:54;18.95;;;9.07;;
65581;SDS011;52231;40.090;18.348;2023-09-08T04:03:22;19.95;;;9.07;;
65581;SDS011;52231;40.090;18.348;2023-09-08T04:05:50;18.80;;;9.70;;
65581;SDS011;52231;40.090;18.348;2023-09-08T04:08:18;16.33;;;9.35;;
65581;SDS011;52231;40.090;18.348;2023-09-08T04:10:46;17.13;;;8.35;;
65581;SDS011;52231;40.090;18.348;2023-09-08T04:15:42;17.58;;;8.40;;
65581;SDS011;52231;40.090;18.348;2023-09-08T04:20:39;15.80;;;8.35;;
65581;SDS011;52231;40.090;18.348;2023-09-08T04:23:07;13.90;;;8.70;;
65581;SDS011;52231;40.090;18.348;2023-09-08T04:25:35;18.33;;;9.35;;
65581;SDS011;52231;40.090;18.348;2023-09-08T04:28:04;19.08;;;10.63;;
65581;SDS011;52231;40.090;18.348;2023-09-08T04:30:32;16.83;;;9.73;;
65581;SDS011;52231;40.090;18.348;2023-09-08T04:33:00;18.25;;;9.30;;
65581;SDS011;52231;40.090;18.348;2023-09-08T04:35:28;20.33;;;10.02;;
65581;SDS011;52231;40.090;18.348;2023-09-08T04:37:56;21.58;;;10.88;;
65581;SDS011;52231;40.090;18.348;2023-09-08T04:40:24;18.88;;;11.10;;
65581;SDS011;52231;40.090;18.348;2023-09-08T04:42:53;21.65;;;11.70;;
65581;SDS011;52231;40.090;18.348;2023-09-08T04:45:22;20.92;;;10.30;;
65581;SDS011;52231;40.090;18.348;2023-09-08T04:47:51;19.02;;;11.27;;
65581;SDS011;52231;40.090;18.348;2023-09-08T04:50:20;20.75;;;11.15;;
65581;SDS011;52231;40.090;18.348;2023-09-08T04:52:48;19.17;;;9.80;;
65581;SDS011;52231;40.090;18.348;2023-09-08T04:55:17;16.67;;;9.20;;
65581;SDS011;52231;40.090;18.348;2023-09-08T04:57:47;16.33;;;8.93;;
65581;SDS011;52231;40.090;18.348;2023-09-08T05:00:15;15.30;;;8.20;;
65581;SDS011;52231;40.090;18.348;2023-09-08T05:02:44;13.93;;;8.60;;
65581;SDS011;52231;40.090;18.348;2023-09-08T05:07:41;20.05;;;8.63;;
65581;SDS011;52231;40.090;18.348;2023-09-08T05:10:09;16.42;;;8.30;;
65581;SDS011;52231;40.090;18.348;2023-09-08T05:12:38;15.40;;;6.85;;
65581;SDS011;52231;40.090;18.348;2023-09-08T05:15:06;12.90;;;7.22;;
65581;SDS011;52231;40.090;18.348;2023-09-08T05:17:45;14.55;;;7.50;;
65581;SDS011;52231;40.090;18.348;2023-09-08T05:20:14;16.27;;;7.38;;
65581;SDS011;52231;40.090;18.348;2023-09-08T05:22:42;13.15;;;7.25;;
65581;SDS011;52231;40.090;18.348;2023-09-08T05:25:11;12.55;;;6.57;;
65581;SDS011;52231;40.090;18.348;2023-09-08T05:27:40;14.30;;;6.00;;
65581;SDS011;52231;40.090;18.348;2023-09-08T05:30:08;13.00;;;6.30;;
65581;SDS011;52231;40.090;18.348;2023-09-08T05:32:37;12.25;;;5.85;;
65581;SDS011;52231;40.090;18.348;2023-09-08T05:35:05;14.57;;;6.20;;
65581;SDS011;52231;40.090;18.348;2023-09-08T05:37:34;12.38;;;6.18;;
65581;SDS011;52231;40.090;18.348;2023-09-08T05:40:03;12.60;;;6.13;;
65581;SDS011;52231;40.090;18.348;2023-09-08T05:42:32;29.92;;;15.63;;
65581;SDS011;52231;40.090;18.348;2023-09-08T05:47:28;35.00;;;20.05;;
65581;SDS011;52231;40.090;18.348;2023-09-08T05:49:56;15.27;;;7.15;;
65581;SDS011;52231;40.090;18.348;2023-09-08T05:52:25;13.75;;;6.55;;
65581;SDS011;52231;40.090;18.348;2023-09-08T05:54:55;15.38;;;6.95;;
65581;SDS011;52231;40.090;18.348;2023-09-08T05:59:51;14.07;;;6.60;;
65581;SDS011;52231;40.090;18.348;2023-09-08T06:04:48;13.18;;;6.50;;
65581;SDS011;52231;40.090;18.348;2023-09-08T06:07:16;14.00;;;6.15;;
65581;SDS011;52231;40.090;18.348;2023-09-08T06:09:45;12.60;;;6.60;;
65581;SDS011;52231;40.090;18.348;2023-09-08T06:12:13;14.55;;;5.97;;
65581;SDS011;52231;40.090;18.348;2023-09-08T06:17:10;11.65;;;5.20;;
65581;SDS011;52231;40.090;18.348;2023-09-08T06:22:06;11.23;;;5.40;;
65581;SDS011;52231;40.090;18.348;2023-09-08T06:24:34;12.73;;;5.38;;
65581;SDS011;52231;40.090;18.348;2023-09-08T06:27:02;14.55;;;4.38;;
65581;SDS011;52231;40.090;18.348;2023-09-08T06:29:30;11.40;;;4.13;;
65581;SDS011;52231;40.090;18.348;2023-09-08T06:34:26;11.73;;;4.00;;
65581;SDS011;52231;40.090;18.348;2023-09-08T06:36:54;13.68;;;4.00;;
65581;SDS011;52231;40.090;18.348;2023-09-08T06:41:52;11.35;;;4.10;;
65581;SDS011;52231;40.090;18.348;2023-09-08T06:44:21;8.68;;;3.70;;
65581;SDS011;52231;40.090;18.348;2023-09-08T06:46:49;8.55;;;3.97;;
65581;SDS011;52231;40.090;18.348;2023-09-08T06:49:17;10.27;;;4.10;;
65581;SDS011;52231;40.090;18.348;2023-09-08T06:51:45;9.65;;;4.07;;
65581;SDS011;52231;40.090;18.348;2023-09-08T06:54:15;11.63;;;4.03;;
65581;SDS011;52231;40.090;18.348;2023-09-08T06:56:44;9.43;;;3.83;;
65581;SDS011;52231;40.090;18.348;2023-09-08T06:59:12;12.45;;;3.92;;
65581;SDS011;52231;40.090;18.348;2023-09-08T07:01:40;9.98;;;4.13;;
65581;SDS011;52231;40.090;18.348;2023-09-08T07:04:10;10.95;;;4.38;;
65581;SDS011;52231;40.090;18.348;2023-09-08T07:06:39;12.70;;;4.63;;
65581;SDS011;52231;40.090;18.348;2023-09-08T07:09:10;11.90;;;4.65;;
65581;SDS011;52231;40.090;18.348;2023-09-08T07:11:38;10.48;;;4.53;;
65581;SDS011;52231;40.090;18.348;2023-09-08T07:14:06;12.48;;;4.53;;
65581;SDS011;52231;40.090;18.348;2023-09-08T07:16:34;10.45;;;4.13;;
65581;SDS011;52231;40.090;18.348;2023-09-08T07:19:02;8.73;;;3.95;;
65581;SDS011;52231;40.090;18.348;2023-09-08T07:21:32;9.00;;;4.00;;
65581;SDS011;52231;40.090;18.348;2023-09-08T07:24:00;9.48;;;3.72;;
65581;SDS011;52231;40.090;18.348;2023-09-08T07:26:29;9.85;;;3.85;;
65581;SDS011;52231;40.090;18.348;2023-09-08T07:28:57;9.07;;;4.10;;
65581;SDS011;52231;40.090;18.348;2023-09-08T07:31:25;10.10;;;4.25;;
65581;SDS011;52231;40.090;18.348;2023-09-08T07:33:54;10.70;;;3.50;;
65581;SDS011;52231;40.090;18.348;2023-09-08T07:36:22;5.93;;;3.30;;
65581;SDS011;52231;40.090;18.348;2023-09-08T07:38:50;6.57;;;3.35;;
65581;SDS011;52231;40.090;18.348;2023-09-08T07:41:18;8.73;;;4.28;;
65581;SDS011;52231;40.090;18.348;2023-09-08T07:43:47;9.75;;;4.13;;
65581;SDS011;52231;40.090;18.348;2023-09-08T07:46:21;11.15;;;3.92;;
65581;SDS011;52231;40.090;18.348;2023-09-08T07:48:49;10.80;;;4.30;;
65581;SDS011;52231;40.090;18.348;2023-09-08T07:51:17;7.93;;;3.60;;
65581;SDS011;52231;40.090;18.348;2023-09-08T07:53:45;7.15;;;3.60;;
65581;SDS011;52231;40.090;18.348;2023-09-08T07:56:14;10.15;;;4.55;;
65581;SDS011;52231;40.090;18.348;2023-09-08T07:58:42;10.25;;;4.25;;
65581;SDS011;52231;40.090;18.348;2023-09-08T08:01:10;10.80;;;4.18;;
65581;SDS011;52231;40.090;18.348;2023-09-08T08:03:40;8.60;;;4.10;;
65581;SDS011;52231;40.090;18.348;2023-09-08T08:06:09;9.65;;;4.22;;
65581;SDS011;52231;40.090;18.348;2023-09-08T08:08:37;7.43;;;4.07;;
65581;SDS011;52231;40.090;18.348;2023-09-08T08:11:12;9.38;;;4.28;;
65581;SDS011;52231;40.090;18.348;2023-09-08T08:13:42;10.82;;;4.47;;
65581;SDS011;52231;40.090;18.348;2023-09-08T08:16:10;8.75;;;4.05;;
65581;SDS011;52231;40.090;18.348;2023-09-08T08:18:38;8.88;;;4.90;;
65581;SDS011;52231;40.090;18.348;2023-09-08T08:21:06;11.80;;;4.45;;
65581;SDS011;52231;40.090;18.348;2023-09-08T08:23:34;8.95;;;4.20;;
65581;SDS011;52231;40.090;18.348;2023-09-08T08:26:03;10.13;;;4.43;;
65581;SDS011;52231;40.090;18.348;2023-09-08T08:28:31;10.85;;;4.57;;
65581;SDS011;52231;40.090;18.348;2023-09-08T08:30:59;12.80;;;4.68;;
65581;SDS011;52231;40.090;18.348;2023-09-08T08:33:27;8.38;;;4.30;;
65581;SDS011;52231;40.090;18.348;2023-09-08T08:35:56;11.00;;;4.63;;
65581;SDS011;52231;40.090;18.348;2023-09-08T08:38:24;9.43;;;4.85;;
65581;SDS011;52231;40.090;18.348;2023-09-08T08:40:53;9.65;;;3.90;;
65581;SDS011;52231;40.090;18.348;2023-09-08T08:43:21;8.18;;;4.28;;
65581;SDS011;52231;40.090;18.348;2023-09-08T08:45:50;7.40;;;3.85;;
65581;SDS011;52231;40.090;18.348;2023-09-08T08:48:21;8.57;;;4.22;;
65581;SDS011;52231;40.090;18.348;2023-09-08T08:50:52;7.72;;;4.22;;
65581;SDS011;52231;40.090;18.348;2023-09-08T08:53:20;7.35;;;4.40;;
65581;SDS011;52231;40.090;18.348;2023-09-08T08:55:49;10.43;;;4.93;;
65581;SDS011;52231;40.090;18.348;2023-09-08T08:58:23;9.38;;;4.25;;
65581;SDS011;52231;40.090;18.348;2023-09-08T09:00:54;10.52;;;4.97;;
65581;SDS011;52231;40.090;18.348;2023-09-08T09:03:26;9.07;;;4.75;;
65581;SDS011;52231;40.090;18.348;2023-09-08T09:05:55;12.02;;;5.10;;
65581;SDS011;52231;40.090;18.348;2023-09-08T09:08:24;9.63;;;4.47;;
65581;SDS011;52231;40.090;18.348;2023-09-08T09:10:53;9.50;;;4.63;;
65581;SDS011;52231;40.090;18.348;2023-09-08T09:13:21;8.77;;;4.50;;
65581;SDS011;52231;40.090;18.348;2023-09-08T09:15:50;11.00;;;5.57;;
65581;SDS011;52231;40.090;18.348;2023-09-08T09:18:18;10.93;;;5.50;;
65581;SDS011;52231;40.090;18.348;2023-09-08T09:20:56;11.73;;;5.80;;
65581;SDS011;52231;40.090;18.348;2023-09-08T09:23:28;13.77;;;5.50;;
65581;SDS011;52231;40.090;18.348;2023-09-08T09:26:00;12.35;;;6.13;;
65581;SDS011;52231;40.090;18.348;2023-09-08T09:28:33;9.63;;;4.50;;
65581;SDS011;52231;40.090;18.348;2023-09-08T09:31:01;10.27;;;5.20;;
65581;SDS011;52231;40.090;18.348;2023-09-08T09:33:30;10.88;;;5.35;;
65581;SDS011;52231;40.090;18.348;2023-09-08T09:35:58;10.90;;;5.47;;
65581;SDS011;52231;40.090;18.348;2023-09-08T09:38:26;9.05;;;4.43;;
65581;SDS011;52231;40.090;18.348;2023-09-08T09:40:55;7.97;;;4.47;;
65581;SDS011;52231;40.090;18.348;2023-09-08T09:43:24;9.18;;;4.82;;
65581;SDS011;52231;40.090;18.348;2023-09-08T09:45:57;9.90;;;4.70;;
65581;SDS011;52231;40.090;18.348;2023-09-08T09:48:25;10.80;;;4.78;;
65581;SDS011;52231;40.090;18.348;2023-09-08T09:50:55;10.52;;;5.03;;
65581;SDS011;52231;40.090;18.348;2023-09-08T09:53:23;8.73;;;4.20;;
65581;SDS011;52231;40.090;18.348;2023-09-08T09:55:51;11.70;;;5.28;;
65581;SDS011;52231;40.090;18.348;2023-09-08T09:58:20;9.88;;;4.43;;
65581;SDS011;52231;40.090;18.348;2023-09-08T10:00:55;9.20;;;4.13;;
65581;SDS011;52231;40.090;18.348;2023-09-08T10:03:28;7.63;;;3.85;;
65581;SDS011;52231;40.090;18.348;2023-09-08T10:06:03;8.23;;;3.83;;
65581;SDS011;52231;40.090;18.348;2023-09-08T10:08:34;7.20;;;3.83;;
65581;SDS011;52231;40.090;18.348;2023-09-08T10:11:22;8.70;;;4.00;;
65581;SDS011;52231;40.090;18.348;2023-09-08T10:13:59;9.73;;;3.75;;
65581;SDS011;52231;40.090;18.348;2023-09-08T10:16:27;10.82;;;4.18;;
65581;SDS011;52231;40.090;18.348;2023-09-08T10:18:58;8.75;;;4.25;;
65581;SDS011;52231;40.090;18.348;2023-09-08T10:21:28;11.10;;;4.28;;
65581;SDS011;52231;40.090;18.348;2023-09-08T10:23:59;8.38;;;4.03;;
65581;SDS011;52231;40.090;18.348;2023-09-08T10:26:35;10.95;;;4.22;;
65581;SDS011;52231;40.090;18.348;2023-09-08T10:29:07;7.95;;;4.00;;
65581;SDS011;52231;40.090;18.348;2023-09-08T10:31:36;7.45;;;4.32;;
65581;SDS011;52231;40.090;18.348;2023-09-08T10:34:05;9.73;;;4.07;;
65581;SDS011;52231;40.090;18.348;2023-09-08T10:36:35;8.48;;;3.97;;
65581;SDS011;52231;40.090;18.348;2023-09-08T10:42:19;9.10;;;4.10;;
65581;SDS011;52231;40.090;18.348;2023-09-08T10:47:24;8.85;;;4.15;;
65581;SDS011;52231;40.090;18.348;2023-09-08T10:49:55;9.75;;;3.65;;
65581;SDS011;52231;40.090;18.348;2023-09-08T10:52:26;9.85;;;3.95;;
65581;SDS011;52231;40.090;18.348;2023-09-08T10:54:55;8.00;;;4.10;;
65581;SDS011;52231;40.090;18.348;2023-09-08T10:57:24;10.15;;;4.20;;
65581;SDS011;52231;40.090;18.348;2023-09-08T10:59:56;10.45;;;4.65;;
65581;SDS011;52231;40.090;18.348;2023-09-08T11:02:37;10.13;;;4.72;;
65581;SDS011;52231;40.090;18.348;2023-09-08T11:05:07;10.52;;;5.03;;
65581;SDS011;52231;40.090;18.348;2023-09-08T11:07:37;8.32;;;4.68;;
65581;SDS011;52231;40.090;18.348;2023-09-08T11:10:06;11.80;;;4.70;;
65581;SDS011;52231;40.090;18.348;2023-09-08T11:12:35;11.13;;;4.80;;
65581;SDS011;52231;40.090;18.348;2023-09-08T11:15:04;9.10;;;4.07;;
65581;SDS011;52231;40.090;18.348;2023-09-08T11:17:36;14.00;;;6.25;;
65581;SDS011;52231;40.090;18.348;2023-09-08T11:20:09;10.50;;;4.40;;
65581;SDS011;52231;40.090;18.348;2023-09-08T11:22:39;9.32;;;3.83;;
65581;SDS011;52231;40.090;18.348;2023-09-08T11:25:08;8.98;;;4.47;;
65581;SDS011;52231;40.090;18.348;2023-09-08T11:27:39;9.60;;;4.75;;
65581;SDS011;52231;40.090;18.348;2023-09-08T11:30:07;11.15;;;4.63;;
65581;SDS011;52231;40.090;18.348;2023-09-08T11:32:38;12.48;;;3.80;;
65581;SDS011;52231;40.090;18.348;2023-09-08T11:35:07;8.45;;;4.10;;
65581;SDS011;52231;40.090;18.348;2023-09-08T11:37:38;10.95;;;4.35;;
65581;SDS011;52231;40.090;18.348;2023-09-08T11:40:09;9.43;;;4.78;;
65581;SDS011;52231;40.090;18.348;2023-09-08T11:42:42;7.93;;;3.92;;
65581;SDS011;52231;40.090;18.348;2023-09-08T11:45:14;8.80;;;4.80;;
65581;SDS011;52231;40.090;18.348;2023-09-08T11:47:45;10.55;;;4.50;;
65581;SDS011;52231;40.090;18.348;2023-09-08T11:50:13;10.20;;;4.30;;
65581;SDS011;52231;40.090;18.348;2023-09-08T11:52:54;9.00;;;4.40;;
65581;SDS011;52231;40.090;18.348;2023-09-08T11:55:23;8.55;;;4.45;;
65581;SDS011;52231;40.090;18.348;2023-09-08T11:57:52;7.63;;;3.65;;
65581;SDS011;52231;40.090;18.348;2023-09-08T12:00:28;9.15;;;4.50;;
65581;SDS011;52231;40.090;18.348;2023-09-08T12:03:08;9.93;;;4.85;;
65581;SDS011;52231;40.090;18.348;2023-09-08T12:05:42;8.90;;;4.47;;
65581;SDS011;52231;40.090;18.348;2023-09-08T12:08:12;11.52;;;4.68;;
65581;SDS011;52231;40.090;18.348;2023-09-08T12:10:41;14.38;;;4.60;;
65581;SDS011;52231;40.090;18.348;2023-09-08T12:13:09;9.20;;;4.63;;
65581;SDS011;52231;40.090;18.348;2023-09-08T12:18:11;11.95;;;4.90;;
65581;SDS011;52231;40.090;18.348;2023-09-08T12:20:43;10.00;;;4.50;;
65581;SDS011;52231;40.090;18.348;2023-09-08T12:23:16;8.63;;;5.15;;
65581;SDS011;52231;40.090;18.348;2023-09-08T12:25:48;9.63;;;4.88;;
65581;SDS011;52231;40.090;18.348;2023-09-08T12:28:20;10.05;;;5.22;;
65581;SDS011;52231;40.090;18.348;2023-09-08T12:30:49;9.23;;;5.13;;
65581;SDS011;52231;40.090;18.348;2023-09-08T12:33:18;10.80;;;4.95;;
65581;SDS011;52231;40.090;18.348;2023-09-08T12:35:48;10.70;;;5.40;;
65581;SDS011;52231;40.090;18.348;2023-09-08T12:38:18;9.70;;;5.43;;
65581;SDS011;52231;40.090;18.348;2023-09-08T12:40:50;11.00;;;5.32;;
65581;SDS011;52231;40.090;18.348;2023-09-08T12:43:18;12.93;;;6.00;;
65581;SDS011;52231;40.090;18.348;2023-09-08T12:45:46;10.15;;;5.75;;
65581;SDS011;52231;40.090;18.348;2023-09-08T12:48:14;12.30;;;6.43;;
65581;SDS011;52231;40.090;18.348;2023-09-08T12:50:42;12.60;;;6.50;;
65581;SDS011;52231;40.090;18.348;2023-09-08T12:53:11;14.80;;;6.82;;
65581;SDS011;52231;40.090;18.348;2023-09-08T12:55:39;13.45;;;6.63;;
65581;SDS011;52231;40.090;18.348;2023-09-08T12:58:07;11.90;;;6.50;;
65581;SDS011;52231;40.090;18.348;2023-09-08T13:00:35;11.77;;;6.40;;
65581;SDS011;52231;40.090;18.348;2023-09-08T13:03:03;14.90;;;6.60;;
65581;SDS011;52231;40.090;18.348;2023-09-08T13:05:32;12.77;;;6.40;;
65581;SDS011;52231;40.090;18.348;2023-09-08T13:08:03;12.35;;;6.80;;
65581;SDS011;52231;40.090;18.348;2023-09-08T13:10:31;11.55;;;6.72;;
65581;SDS011;52231;40.090;18.348;2023-09-08T13:12:59;12.30;;;6.45;;
65581;SDS011;52231;40.090;18.348;2023-09-08T13:15:27;10.00;;;6.60;;
65581;SDS011;52231;40.090;18.348;2023-09-08T13:17:55;11.60;;;6.95;;
65581;SDS011;52231;40.090;18.348;2023-09-08T13:20:24;27.27;;;16.60;;
65581;SDS011;52231;40.090;18.348;2023-09-08T13:22:52;15.70;;;6.90;;
65581;SDS011;52231;40.090;18.348;2023-09-08T13:25:20;11.43;;;6.93;;
65581;SDS011;52231;40.090;18.348;2023-09-08T13:27:48;12.07;;;6.30;;
65581;SDS011;52231;40.090;18.348;2023-09-08T13:30:16;10.95;;;6.50;;
65581;SDS011;52231;40.090;18.348;2023-09-08T13:32:46;11.80;;;6.43;;
65581;SDS011;52231;40.090;18.348;2023-09-08T13:35:14;12.90;;;6.40;;
65581;SDS011;52231;40.090;18.348;2023-09-08T13:37:42;12.20;;;6.03;;
65581;SDS011;52231;40.090;18.348;2023-09-08T13:40:10;11.85;;;6.68;;
65581;SDS011;52231;40.090;18.348;2023-09-08T13:42:40;11.35;;;6.88;;
65581;SDS011;52231;40.090;18.348;2023-09-08T13:45:08;11.98;;;6.45;;
65581;SDS011;52231;40.090;18.348;2023-09-08T13:47:37;13.23;;;6.95;;
65581;SDS011;52231;40.090;18.348;2023-09-08T13:50:06;14.73;;;7.65;;
65581;SDS011;52231;40.090;18.348;2023-09-08T13:52:39;12.73;;;6.78;;
65581;SDS011;52231;40.090;18.348;2023-09-08T13:55:10;9.40;;;6.60;;
65581;SDS011;52231;40.090;18.348;2023-09-08T13:57:58;11.15;;;6.50;;
65581;SDS011;52231;40.090;18.348;2023-09-08T14:00:27;12.13;;;7.43;;
65581;SDS011;52231;40.090;18.348;2023-09-08T14:02:57;19.17;;;6.85;;
65581;SDS011;52231;40.090;18.348;2023-09-08T14:05:32;11.18;;;6.80;;
65581;SDS011;52231;40.090;18.348;2023-09-08T14:08:02;11.75;;;7.28;;
65581;SDS011;52231;40.090;18.348;2023-09-08T14:10:33;11.38;;;6.68;;
65581;SDS011;52231;40.090;18.348;2023-09-08T14:13:04;10.90;;;7.50;;
65581;SDS011;52231;40.090;18.348;2023-09-08T14:15:32;14.40;;;8.07;;
65581;SDS011;52231;40.090;18.348;2023-09-08T14:18:00;12.20;;;7.65;;
65581;SDS011;52231;40.090;18.348;2023-09-08T14:20:28;14.57;;;7.93;;
65581;SDS011;52231;40.090;18.348;2023-09-08T14:22:56;11.98;;;7.78;;
65581;SDS011;52231;40.090;18.348;2023-09-08T14:25:24;14.68;;;7.55;;
65581;SDS011;52231;40.090;18.348;2023-09-08T14:27:52;14.02;;;8.30;;
65581;SDS011;52231;40.090;18.348;2023-09-08T14:30:20;17.38;;;11.00;;
65581;SDS011;52231;40.090;18.348;2023-09-08T14:32:48;15.52;;;8.32;;
65581;SDS011;52231;40.090;18.348;2023-09-08T14:35:16;13.15;;;8.30;;
65581;SDS011;52231;40.090;18.348;2023-09-08T14:37:46;14.93;;;8.15;;
65581;SDS011;52231;40.090;18.348;2023-09-08T14:40:15;15.85;;;8.80;;
65581;SDS011;52231;40.090;18.348;2023-09-08T14:42:43;16.27;;;9.13;;
65581;SDS011;52231;40.090;18.348;2023-09-08T14:45:12;14.07;;;9.13;;
65581;SDS011;52231;40.090;18.348;2023-09-08T14:47:40;15.18;;;8.60;;
65581;SDS011;52231;40.090;18.348;2023-09-08T14:50:08;16.10;;;9.02;;
65581;SDS011;52231;40.090;18.348;2023-09-08T14:52:43;16.67;;;9.40;;
65581;SDS011;52231;40.090;18.348;2023-09-08T14:55:11;15.07;;;9.75;;
65581;SDS011;52231;40.090;18.348;2023-09-08T14:57:40;15.55;;;9.18;;
65581;SDS011;52231;40.090;18.348;2023-09-08T15:00:09;13.48;;;9.52;;
65581;SDS011;52231;40.090;18.348;2023-09-08T15:02:38;13.98;;;8.43;;
65581;SDS011;52231;40.090;18.348;2023-09-08T15:05:06;13.55;;;8.82;;
65581;SDS011;52231;40.090;18.348;2023-09-08T15:07:36;15.45;;;9.23;;
65581;SDS011;52231;40.090;18.348;2023-09-08T15:10:04;12.85;;;8.52;;
65581;SDS011;52231;40.090;18.348;2023-09-08T15:12:32;17.80;;;8.93;;
65581;SDS011;52231;40.090;18.348;2023-09-08T15:15:01;15.57;;;9.18;;
65581;SDS011;52231;40.090;18.348;2023-09-08T15:17:31;16.27;;;9.23;;
65581;SDS011;52231;40.090;18.348;2023-09-08T15:19:59;12.77;;;9.05;;
65581;SDS011;52231;40.090;18.348;2023-09-08T15:22:27;16.33;;;9.80;;
65581;SDS011;52231;40.090;18.348;2023-09-08T15:24:56;14.23;;;9.05;;
65581;SDS011;52231;40.090;18.348;2023-09-08T15:27:24;18.38;;;9.18;;
65581;SDS011;52231;40.090;18.348;2023-09-08T15:29:52;14.32;;;9.13;;
65581;SDS011;52231;40.090;18.348;2023-09-08T15:32:21;15.13;;;9.18;;
65581;SDS011;52231;40.090;18.348;2023-09-08T15:34:51;14.30;;;8.82;;
65581;SDS011;52231;40.090;18.348;2023-09-08T15:37:19;14.88;;;8.77;;
65581;SDS011;52231;40.090;18.348;2023-09-08T15:39:47;14.10;;;8.68;;
65581;SDS011;52231;40.090;18.348;2023-09-08T15:42:15;14.40;;;9.15;;
65581;SDS011;52231;40.090;18.348;2023-09-08T15:44:44;14.65;;;8.50;;
65581;SDS011;52231;40.090;18.348;2023-09-08T15:47:12;16.88;;;8.98;;